sensor_id;sensor_type;location;lat;lon;timestamp;temperature;humidity
3504;DHT22;1766;53.490;10.174;2022-12-18T00:00:39;1.70;38.60
3504;DHT22;1766;53.490;10.174;2022-12-18T00:02:43;1.60;38.50
3504;DHT22;1766;53.490;10.174;2022-12-18T00:04:45;1.70;38.50
3504;DHT22;1766;53.490;10.174;2022-12-18T00:06:47;1.70;38.30
3504;DHT22;1766;53.490;10.174;2022-12-18T00:08:49;1.70;38.50
3504;DHT22;1766;53.490;10.174;2022-12-18T00:10:51;1.70;38.40
3504;DHT22;1766;53.490;10.174;2022-12-18T00:12:53;1.80;38.40
3504;DHT22;1766;53.490;10.174;2022-12-18T00:14:55;1.60;38.30
3504;DHT22;1766;53.490;10.174;2022-12-18T00:16:56;1.70;38.40
3504;DHT22;1766;53.490;10.174;2022-12-18T00:19:03;1.60;38.20
3504;DHT22;1766;53.490;10.174;2022-12-18T00:21:08;1.60;38.40
3504;DHT22;1766;53.490;10.174;2022-12-18T00:23:11;1.60;38.40
3504;DHT22;1766;53.490;10.174;2022-12-18T00:25:13;1.50;38.20
3504;DHT22;1766;53.490;10.174;2022-12-18T00:27:15;1.60;38.20
3504;DHT22;1766;53.490;10.174;2022-12-18T00:29:17;1.60;38.00
3504;DHT22;1766;53.490;10.174;2022-12-18T00:31:20;1.60;38.20
3504;DHT22;1766;53.490;10.174;2022-12-18T00:33:23;1.60;38.20
3504;DHT22;1766;53.490;10.174;2022-12-18T00:35:27;1.60;38.00
3504;DHT22;1766;53.490;10.174;2022-12-18T00:37:28;1.50;38.00
3504;DHT22;1766;53.490;10.174;2022-12-18T00:39:30;1.60;38.20
3504;DHT22;1766;53.490;10.174;2022-12-18T00:41:32;1.60;38.20
3504;DHT22;1766;53.490;10.174;2022-12-18T00:43:48;1.60;38.20
3504;DHT22;1766;53.490;10.174;2022-12-18T00:45:50;1.50;37.80
3504;DHT22;1766;53.490;10.174;2022-12-18T00:47:52;1.50;37.70
3504;DHT22;1766;53.490;10.174;2022-12-18T00:49:54;1.50;38.20
3504;DHT22;1766;53.490;10.174;2022-12-18T00:51:58;1.50;37.60
3504;DHT22;1766;53.490;10.174;2022-12-18T00:54:00;1.40;37.40
3504;DHT22;1766;53.490;10.174;2022-12-18T00:56:01;1.40;37.80
3504;DHT22;1766;53.490;10.174;2022-12-18T00:58:03;1.40;37.90
3504;DHT22;1766;53.490;10.174;2022-12-18T01:00:08;1.40;37.90
3504;DHT22;1766;53.490;10.174;2022-12-18T01:02:12;1.40;38.10
3504;DHT22;1766;53.490;10.174;2022-12-18T01:04:14;1.30;37.90
3504;DHT22;1766;53.490;10.174;2022-12-18T01:06:16;1.40;38.00
3504;DHT22;1766;53.490;10.174;2022-12-18T01:08:20;1.30;37.80
3504;DHT22;1766;53.490;10.174;2022-12-18T01:10:22;1.30;37.80
3504;DHT22;1766;53.490;10.174;2022-12-18T01:12:24;1.30;38.00
3504;DHT22;1766;53.490;10.174;2022-12-18T01:14:26;1.30;37.90
3504;DHT22;1766;53.490;10.174;2022-12-18T01:16:28;1.20;37.70
3504;DHT22;1766;53.490;10.174;2022-12-18T01:18:30;1.20;37.80
3504;DHT22;1766;53.490;10.174;2022-12-18T01:20:32;1.20;38.00
3504;DHT22;1766;53.490;10.174;2022-12-18T01:22:34;1.20;37.90
3504;DHT22;1766;53.490;10.174;2022-12-18T01:24:38;1.20;38.00
3504;DHT22;1766;53.490;10.174;2022-12-18T01:26:39;1.20;37.90
3504;DHT22;1766;53.490;10.174;2022-12-18T01:28:42;1.20;37.90
3504;DHT22;1766;53.490;10.174;2022-12-18T01:30:45;1.20;38.10
3504;DHT22;1766;53.490;10.174;2022-12-18T01:32:47;1.10;37.90
3504;DHT22;1766;53.490;10.174;2022-12-18T01:34:48;1.10;37.90
3504;DHT22;1766;53.490;10.174;2022-12-18T01:36:50;1.10;38.00
3504;DHT22;1766;53.490;10.174;2022-12-18T01:38:53;0.40;37.30
3504;DHT22;1766;53.490;10.174;2022-12-18T01:40:58;1.10;38.20
3504;DHT22;1766;53.490;10.174;2022-12-18T01:43:00;1.10;38.20
3504;DHT22;1766;53.490;10.174;2022-12-18T01:45:06;1.10;38.10
3504;DHT22;1766;53.490;10.174;2022-12-18T01:47:14;1.10;38.30
3504;DHT22;1766;53.490;10.174;2022-12-18T01:49:17;1.10;38.30
3504;DHT22;1766;53.490;10.174;2022-12-18T01:51:19;1.10;38.10
3504;DHT22;1766;53.490;10.174;2022-12-18T01:53:22;1.10;38.20
3504;DHT22;1766;53.490;10.174;2022-12-18T01:55:26;1.10;38.30
3504;DHT22;1766;53.490;10.174;2022-12-18T01:57:32;1.10;38.30
3504;DHT22;1766;53.490;10.174;2022-12-18T01:59:35;1.10;38.20
3504;DHT22;1766;53.490;10.174;2022-12-18T02:01:38;1.10;38.20
3504;DHT22;1766;53.490;10.174;2022-12-18T02:03:41;1.10;37.70
3504;DHT22;1766;53.490;10.174;2022-12-18T02:05:47;1.10;38.20
3504;DHT22;1766;53.490;10.174;2022-12-18T02:07:59;1.10;38.20
3504;DHT22;1766;53.490;10.174;2022-12-18T02:10:10;1.00;38.10
3504;DHT22;1766;53.490;10.174;2022-12-18T02:12:18;1.00;38.00
3504;DHT22;1766;53.490;10.174;2022-12-18T02:14:28;0.70;37.60
3504;DHT22;1766;53.490;10.174;2022-12-18T02:16:39;1.00;38.10
3504;DHT22;1766;53.490;10.174;2022-12-18T02:18:50;0.90;38.00
3504;DHT22;1766;53.490;10.174;2022-12-18T02:20:59;0.90;38.00
3504;DHT22;1766;53.490;10.174;2022-12-18T02:23:15;0.90;38.00
3504;DHT22;1766;53.490;10.174;2022-12-18T02:25:39;0.90;38.00
3504;DHT22;1766;53.490;10.174;2022-12-18T02:27:51;0.90;38.10
3504;DHT22;1766;53.490;10.174;2022-12-18T02:29:55;0.90;38.00
3504;DHT22;1766;53.490;10.174;2022-12-18T02:31:59;0.80;37.90
3504;DHT22;1766;53.490;10.174;2022-12-18T02:34:04;0.90;38.00
3504;DHT22;1766;53.490;10.174;2022-12-18T02:36:09;0.80;38.00
3504;DHT22;1766;53.490;10.174;2022-12-18T02:38:12;0.80;38.00
3504;DHT22;1766;53.490;10.174;2022-12-18T02:40:16;0.80;38.00
3504;DHT22;1766;53.490;10.174;2022-12-18T02:42:19;0.80;38.10
3504;DHT22;1766;53.490;10.174;2022-12-18T02:44:22;0.80;37.90
3504;DHT22;1766;53.490;10.174;2022-12-18T02:46:29;0.80;38.00
3504;DHT22;1766;53.490;10.174;2022-12-18T02:48:36;0.90;38.20
3504;DHT22;1766;53.490;10.174;2022-12-18T02:50:44;0.90;38.00
3504;DHT22;1766;53.490;10.174;2022-12-18T02:52:56;0.80;38.10
3504;DHT22;1766;53.490;10.174;2022-12-18T02:55:15;0.80;38.10
3504;DHT22;1766;53.490;10.174;2022-12-18T02:57:34;0.80;38.10
3504;DHT22;1766;53.490;10.174;2022-12-18T02:59:43;0.70;38.10
3504;DHT22;1766;53.490;10.174;2022-12-18T03:01:51;0.70;38.00
3504;DHT22;1766;53.490;10.174;2022-12-18T03:03:57;0.70;37.90
3504;DHT22;1766;53.490;10.174;2022-12-18T03:06:05;0.70;38.00
3504;DHT22;1766;53.490;10.174;2022-12-18T03:08:14;0.70;38.10
3504;DHT22;1766;53.490;10.174;2022-12-18T03:10:21;0.60;37.90
3504;DHT22;1766;53.490;10.174;2022-12-18T03:12:30;0.70;38.00
3504;DHT22;1766;53.490;10.174;2022-12-18T03:14:34;0.70;38.00
3504;DHT22;1766;53.490;10.174;2022-12-18T03:16:40;0.70;38.00
3504;DHT22;1766;53.490;10.174;2022-12-18T03:18:46;0.60;38.00
3504;DHT22;1766;53.490;10.174;2022-12-18T03:20:51;0.70;38.10
3504;DHT22;1766;53.490;10.174;2022-12-18T03:22:59;0.60;37.90
3504;DHT22;1766;53.490;10.174;2022-12-18T03:25:06;0.60;37.90
3504;DHT22;1766;53.490;10.174;2022-12-18T03:27:13;0.60;38.00
3504;DHT22;1766;53.490;10.174;2022-12-18T03:29:25;0.60;37.90
3504;DHT22;1766;53.490;10.174;2022-12-18T03:31:34;0.60;37.90
3504;DHT22;1766;53.490;10.174;2022-12-18T03:33:39;0.60;37.90
3504;DHT22;1766;53.490;10.174;2022-12-18T03:35:43;0.60;37.90
3504;DHT22;1766;53.490;10.174;2022-12-18T03:37:45;0.60;37.90
3504;DHT22;1766;53.490;10.174;2022-12-18T03:39:47;0.60;37.80
3504;DHT22;1766;53.490;10.174;2022-12-18T03:41:52;0.60;37.80
3504;DHT22;1766;53.490;10.174;2022-12-18T03:44:03;0.50;37.90
3504;DHT22;1766;53.490;10.174;2022-12-18T03:46:15;0.60;37.90
3504;DHT22;1766;53.490;10.174;2022-12-18T03:48:26;0.60;38.10
3504;DHT22;1766;53.490;10.174;2022-12-18T03:50:37;0.50;38.00
3504;DHT22;1766;53.490;10.174;2022-12-18T03:52:49;0.40;38.00
3504;DHT22;1766;53.490;10.174;2022-12-18T03:54:53;0.40;38.10
3504;DHT22;1766;53.490;10.174;2022-12-18T03:57:00;0.40;38.00
3504;DHT22;1766;53.490;10.174;2022-12-18T03:59:06;0.40;38.10
3504;DHT22;1766;53.490;10.174;2022-12-18T04:01:10;0.40;38.10
3504;DHT22;1766;53.490;10.174;2022-12-18T04:03:14;0.30;38.00
3504;DHT22;1766;53.490;10.174;2022-12-18T04:05:19;0.40;38.00
3504;DHT22;1766;53.490;10.174;2022-12-18T04:07:22;0.40;38.00
3504;DHT22;1766;53.490;10.174;2022-12-18T04:09:25;0.40;38.10
3504;DHT22;1766;53.490;10.174;2022-12-18T04:11:28;0.40;38.10
3504;DHT22;1766;53.490;10.174;2022-12-18T04:13:33;0.40;38.00
3504;DHT22;1766;53.490;10.174;2022-12-18T04:15:39;0.40;38.10
3504;DHT22;1766;53.490;10.174;2022-12-18T04:17:47;0.80;38.40
3504;DHT22;1766;53.490;10.174;2022-12-18T04:19:50;0.40;38.20
3504;DHT22;1766;53.490;10.174;2022-12-18T04:21:53;0.40;38.20
3504;DHT22;1766;53.490;10.174;2022-12-18T04:23:55;0.40;38.20
3504;DHT22;1766;53.490;10.174;2022-12-18T04:25:56;0.40;38.20
3504;DHT22;1766;53.490;10.174;2022-12-18T04:27:58;0.40;38.40
3504;DHT22;1766;53.490;10.174;2022-12-18T04:30:00;0.30;38.20
3504;DHT22;1766;53.490;10.174;2022-12-18T04:32:02;0.40;38.30
3504;DHT22;1766;53.490;10.174;2022-12-18T04:34:04;0.40;38.30
3504;DHT22;1766;53.490;10.174;2022-12-18T04:36:06;0.30;38.20
3504;DHT22;1766;53.490;10.174;2022-12-18T04:38:10;0.30;38.30
3504;DHT22;1766;53.490;10.174;2022-12-18T04:40:12;0.40;38.20
3504;DHT22;1766;53.490;10.174;2022-12-18T04:42:14;0.20;38.10
3504;DHT22;1766;53.490;10.174;2022-12-18T04:44:15;0.40;38.20
3504;DHT22;1766;53.490;10.174;2022-12-18T04:46:17;0.40;38.20
3504;DHT22;1766;53.490;10.174;2022-12-18T04:48:20;0.30;38.20
3504;DHT22;1766;53.490;10.174;2022-12-18T04:50:22;0.30;38.20
3504;DHT22;1766;53.490;10.174;2022-12-18T04:52:23;0.30;38.20
3504;DHT22;1766;53.490;10.174;2022-12-18T04:54:26;0.30;38.30
3504;DHT22;1766;53.490;10.174;2022-12-18T04:56:30;0.20;38.20
3504;DHT22;1766;53.490;10.174;2022-12-18T04:58:32;0.30;38.50
3504;DHT22;1766;53.490;10.174;2022-12-18T05:00:34;0.30;38.40
3504;DHT22;1766;53.490;10.174;2022-12-18T05:02:36;0.30;38.40
3504;DHT22;1766;53.490;10.174;2022-12-18T05:04:37;0.20;38.40
3504;DHT22;1766;53.490;10.174;2022-12-18T05:06:40;0.30;38.60
3504;DHT22;1766;53.490;10.174;2022-12-18T05:08:44;0.30;38.30
3504;DHT22;1766;53.490;10.174;2022-12-18T05:10:48;0.30;38.10
3504;DHT22;1766;53.490;10.174;2022-12-18T05:12:49;0.30;38.40
3504;DHT22;1766;53.490;10.174;2022-12-18T05:15:06;0.30;38.20
3504;DHT22;1766;53.490;10.174;2022-12-18T05:17:08;0.30;38.40
3504;DHT22;1766;53.490;10.174;2022-12-18T05:19:10;0.20;38.20
3504;DHT22;1766;53.490;10.174;2022-12-18T05:21:12;0.20;38.20
3504;DHT22;1766;53.490;10.174;2022-12-18T05:23:14;0.20;38.10
3504;DHT22;1766;53.490;10.174;2022-12-18T05:25:16;0.20;38.20
3504;DHT22;1766;53.490;10.174;2022-12-18T05:27:19;0.20;38.20
3504;DHT22;1766;53.490;10.174;2022-12-18T05:29:21;0.10;38.10
3504;DHT22;1766;53.490;10.174;2022-12-18T05:31:25;0.10;38.20
3504;DHT22;1766;53.490;10.174;2022-12-18T05:33:30;0.20;38.00
3504;DHT22;1766;53.490;10.174;2022-12-18T05:35:33;0.20;38.20
3504;DHT22;1766;53.490;10.174;2022-12-18T05:37:35;0.00;38.10
3504;DHT22;1766;53.490;10.174;2022-12-18T05:39:37;0.10;38.20
3504;DHT22;1766;53.490;10.174;2022-12-18T05:41:38;0.10;38.20
3504;DHT22;1766;53.490;10.174;2022-12-18T05:43:41;0.10;38.30
3504;DHT22;1766;53.490;10.174;2022-12-18T05:45:44;0.10;38.40
3504;DHT22;1766;53.490;10.174;2022-12-18T05:47:46;0.00;38.40
3504;DHT22;1766;53.490;10.174;2022-12-18T05:49:48;0.10;38.50
3504;DHT22;1766;53.490;10.174;2022-12-18T05:51:50;0.00;38.50
3504;DHT22;1766;53.490;10.174;2022-12-18T05:53:51;0.10;38.60
3504;DHT22;1766;53.490;10.174;2022-12-18T05:55:53;0.10;38.60
3504;DHT22;1766;53.490;10.174;2022-12-18T05:57:55;0.10;38.60
3504;DHT22;1766;53.490;10.174;2022-12-18T05:59:58;0.10;38.60
3504;DHT22;1766;53.490;10.174;2022-12-18T06:02:00;0.10;38.60
3504;DHT22;1766;53.490;10.174;2022-12-18T06:04:02;0.20;38.70
3504;DHT22;1766;53.490;10.174;2022-12-18T06:06:12;0.20;38.70
3504;DHT22;1766;53.490;10.174;2022-12-18T06:08:14;0.20;38.60
3504;DHT22;1766;53.490;10.174;2022-12-18T06:10:16;0.20;38.50
3504;DHT22;1766;53.490;10.174;2022-12-18T06:12:18;0.20;38.40
3504;DHT22;1766;53.490;10.174;2022-12-18T06:14:19;0.20;38.40
3504;DHT22;1766;53.490;10.174;2022-12-18T06:16:22;0.20;38.40
3504;DHT22;1766;53.490;10.174;2022-12-18T06:18:24;0.20;38.40
3504;DHT22;1766;53.490;10.174;2022-12-18T06:20:26;0.10;38.30
3504;DHT22;1766;53.490;10.174;2022-12-18T06:22:28;0.10;38.40
3504;DHT22;1766;53.490;10.174;2022-12-18T06:24:32;0.10;38.60
3504;DHT22;1766;53.490;10.174;2022-12-18T06:26:33;0.10;38.50
3504;DHT22;1766;53.490;10.174;2022-12-18T06:28:35;0.00;38.40
3504;DHT22;1766;53.490;10.174;2022-12-18T06:30:37;0.00;38.50
3504;DHT22;1766;53.490;10.174;2022-12-18T06:32:40;0.00;38.40
3504;DHT22;1766;53.490;10.174;2022-12-18T06:34:42;0.10;38.50
3504;DHT22;1766;53.490;10.174;2022-12-18T06:36:43;0.10;38.60
3504;DHT22;1766;53.490;10.174;2022-12-18T06:38:45;0.00;38.40
3504;DHT22;1766;53.490;10.174;2022-12-18T06:40:47;0.00;38.50
3504;DHT22;1766;53.490;10.174;2022-12-18T06:42:49;0.00;38.50
3504;DHT22;1766;53.490;10.174;2022-12-18T06:44:51;0.00;38.50
3504;DHT22;1766;53.490;10.174;2022-12-18T06:46:52;0.00;38.50
3504;DHT22;1766;53.490;10.174;2022-12-18T06:48:55;0.00;38.50
3504;DHT22;1766;53.490;10.174;2022-12-18T06:50:57;0.00;38.50
3504;DHT22;1766;53.490;10.174;2022-12-18T06:52:59;0.00;38.50
3504;DHT22;1766;53.490;10.174;2022-12-18T06:55:01;0.00;38.60
3504;DHT22;1766;53.490;10.174;2022-12-18T06:57:03;0.00;38.60
3504;DHT22;1766;53.490;10.174;2022-12-18T06:59:11;0.00;38.50
3504;DHT22;1766;53.490;10.174;2022-12-18T07:01:13;0.10;38.90
3504;DHT22;1766;53.490;10.174;2022-12-18T07:03:15;0.00;38.70
3504;DHT22;1766;53.490;10.174;2022-12-18T07:05:18;0.00;38.70
3504;DHT22;1766;53.490;10.174;2022-12-18T07:07:20;0.00;38.70
3504;DHT22;1766;53.490;10.174;2022-12-18T07:09:23;0.00;38.60
3504;DHT22;1766;53.490;10.174;2022-12-18T07:11:26;0.00;38.70
3504;DHT22;1766;53.490;10.174;2022-12-18T07:13:28;0.00;38.70
3504;DHT22;1766;53.490;10.174;2022-12-18T07:15:30;0.00;38.70
3504;DHT22;1766;53.490;10.174;2022-12-18T07:17:32;0.00;38.70
3504;DHT22;1766;53.490;10.174;2022-12-18T07:19:34;0.00;38.90
3504;DHT22;1766;53.490;10.174;2022-12-18T07:21:37;0.00;39.60
3504;DHT22;1766;53.490;10.174;2022-12-18T07:23:39;0.00;38.90
3504;DHT22;1766;53.490;10.174;2022-12-18T07:25:41;0.10;39.10
3504;DHT22;1766;53.490;10.174;2022-12-18T07:27:43;0.00;39.00
3504;DHT22;1766;53.490;10.174;2022-12-18T07:29:45;0.10;39.10
3504;DHT22;1766;53.490;10.174;2022-12-18T07:31:47;0.10;39.00
3504;DHT22;1766;53.490;10.174;2022-12-18T07:33:50;0.10;39.00
3504;DHT22;1766;53.490;10.174;2022-12-18T07:35:52;0.10;39.20
3504;DHT22;1766;53.490;10.174;2022-12-18T07:37:55;0.10;39.10
3504;DHT22;1766;53.490;10.174;2022-12-18T07:39:57;0.10;39.10
3504;DHT22;1766;53.490;10.174;2022-12-18T07:41:59;0.10;39.10
3504;DHT22;1766;53.490;10.174;2022-12-18T07:44:14;0.10;39.20
3504;DHT22;1766;53.490;10.174;2022-12-18T07:46:16;0.20;39.20
3504;DHT22;1766;53.490;10.174;2022-12-18T07:48:34;0.20;39.10
3504;DHT22;1766;53.490;10.174;2022-12-18T07:50:36;0.20;39.10
3504;DHT22;1766;53.490;10.174;2022-12-18T07:52:38;0.20;39.30
3504;DHT22;1766;53.490;10.174;2022-12-18T07:54:42;0.20;39.10
3504;DHT22;1766;53.490;10.174;2022-12-18T07:56:43;0.20;39.20
3504;DHT22;1766;53.490;10.174;2022-12-18T07:58:47;0.20;39.20
3504;DHT22;1766;53.490;10.174;2022-12-18T08:00:49;0.20;39.20
3504;DHT22;1766;53.490;10.174;2022-12-18T08:02:57;0.20;39.30
3504;DHT22;1766;53.490;10.174;2022-12-18T08:04:59;0.20;39.40
3504;DHT22;1766;53.490;10.174;2022-12-18T08:07:01;0.20;39.30
3504;DHT22;1766;53.490;10.174;2022-12-18T08:09:02;0.30;39.50
3504;DHT22;1766;53.490;10.174;2022-12-18T08:11:06;0.30;39.50
3504;DHT22;1766;53.490;10.174;2022-12-18T08:13:07;0.30;39.50
3504;DHT22;1766;53.490;10.174;2022-12-18T08:15:09;0.30;39.30
3504;DHT22;1766;53.490;10.174;2022-12-18T08:17:21;0.30;39.40
3504;DHT22;1766;53.490;10.174;2022-12-18T08:19:24;0.30;39.50
3504;DHT22;1766;53.490;10.174;2022-12-18T08:21:27;1.60;40.30
3504;DHT22;1766;53.490;10.174;2022-12-18T08:23:31;0.40;39.60
3504;DHT22;1766;53.490;10.174;2022-12-18T08:25:40;2.00;40.60
3504;DHT22;1766;53.490;10.174;2022-12-18T08:27:43;0.50;39.60
3504;DHT22;1766;53.490;10.174;2022-12-18T08:29:45;0.50;39.80
3504;DHT22;1766;53.490;10.174;2022-12-18T08:31:50;0.50;39.50
3504;DHT22;1766;53.490;10.174;2022-12-18T08:33:52;0.50;39.80
3504;DHT22;1766;53.490;10.174;2022-12-18T08:35:55;0.50;39.70
3504;DHT22;1766;53.490;10.174;2022-12-18T08:37:56;0.60;39.60
3504;DHT22;1766;53.490;10.174;2022-12-18T08:39:58;0.60;39.70
3504;DHT22;1766;53.490;10.174;2022-12-18T08:42:00;0.70;39.80
3504;DHT22;1766;53.490;10.174;2022-12-18T08:44:17;0.70;39.60
3504;DHT22;1766;53.490;10.174;2022-12-18T08:46:35;0.70;39.90
3504;DHT22;1766;53.490;10.174;2022-12-18T08:48:38;0.80;40.00
3504;DHT22;1766;53.490;10.174;2022-12-18T08:50:40;0.80;39.90
3504;DHT22;1766;53.490;10.174;2022-12-18T08:52:42;0.80;40.10
3504;DHT22;1766;53.490;10.174;2022-12-18T08:54:44;0.80;40.00
3504;DHT22;1766;53.490;10.174;2022-12-18T08:56:47;0.80;40.00
3504;DHT22;1766;53.490;10.174;2022-12-18T08:58:51;0.90;40.10
3504;DHT22;1766;53.490;10.174;2022-12-18T09:00:59;0.90;40.20
3504;DHT22;1766;53.490;10.174;2022-12-18T09:03:02;0.90;40.20
3504;DHT22;1766;53.490;10.174;2022-12-18T09:05:04;1.00;40.20
3504;DHT22;1766;53.490;10.174;2022-12-18T09:07:06;1.00;40.30
3504;DHT22;1766;53.490;10.174;2022-12-18T09:09:09;1.10;40.20
3504;DHT22;1766;53.490;10.174;2022-12-18T09:11:13;1.10;40.20
3504;DHT22;1766;53.490;10.174;2022-12-18T09:13:17;1.10;40.20
3504;DHT22;1766;53.490;10.174;2022-12-18T09:15:19;1.10;40.40
3504;DHT22;1766;53.490;10.174;2022-12-18T09:17:23;1.10;40.20
3504;DHT22;1766;53.490;10.174;2022-12-18T09:19:24;1.20;40.50
3504;DHT22;1766;53.490;10.174;2022-12-18T09:21:28;1.20;40.40
3504;DHT22;1766;53.490;10.174;2022-12-18T09:23:30;1.30;40.60
3504;DHT22;1766;53.490;10.174;2022-12-18T09:25:33;1.30;40.50
3504;DHT22;1766;53.490;10.174;2022-12-18T09:27:36;1.40;40.70
3504;DHT22;1766;53.490;10.174;2022-12-18T09:29:38;1.40;40.60
3504;DHT22;1766;53.490;10.174;2022-12-18T09:31:39;1.50;40.60
3504;DHT22;1766;53.490;10.174;2022-12-18T09:33:42;1.50;40.60
3504;DHT22;1766;53.490;10.174;2022-12-18T09:35:46;1.50;40.60
3504;DHT22;1766;53.490;10.174;2022-12-18T09:37:48;1.50;40.70
3504;DHT22;1766;53.490;10.174;2022-12-18T09:39:49;1.50;40.60
3504;DHT22;1766;53.490;10.174;2022-12-18T09:41:52;1.60;40.70
3504;DHT22;1766;53.490;10.174;2022-12-18T09:43:58;1.60;40.80
3504;DHT22;1766;53.490;10.174;2022-12-18T09:46:06;1.70;40.90
3504;DHT22;1766;53.490;10.174;2022-12-18T09:48:25;1.60;40.80
3504;DHT22;1766;53.490;10.174;2022-12-18T09:50:33;1.80;41.00
3504;DHT22;1766;53.490;10.174;2022-12-18T09:52:40;1.80;41.00
3504;DHT22;1766;53.490;10.174;2022-12-18T09:54:47;1.90;41.10
3504;DHT22;1766;53.490;10.174;2022-12-18T09:56:51;1.90;41.00
3504;DHT22;1766;53.490;10.174;2022-12-18T09:58:56;2.00;41.10
3504;DHT22;1766;53.490;10.174;2022-12-18T10:00:59;2.10;41.30
3504;DHT22;1766;53.490;10.174;2022-12-18T10:03:08;2.10;41.20
3504;DHT22;1766;53.490;10.174;2022-12-18T10:05:13;2.20;41.30
3504;DHT22;1766;53.490;10.174;2022-12-18T10:07:24;2.30;41.90
3504;DHT22;1766;53.490;10.174;2022-12-18T10:09:33;2.20;41.20
3504;DHT22;1766;53.490;10.174;2022-12-18T10:11:46;2.40;41.40
3504;DHT22;1766;53.490;10.174;2022-12-18T10:13:53;2.40;41.40
3504;DHT22;1766;53.490;10.174;2022-12-18T10:16:08;2.50;41.40
3504;DHT22;1766;53.490;10.174;2022-12-18T10:18:32;2.50;41.50
3504;DHT22;1766;53.490;10.174;2022-12-18T10:20:43;2.70;41.60
3504;DHT22;1766;53.490;10.174;2022-12-18T10:22:54;2.80;41.60
3504;DHT22;1766;53.490;10.174;2022-12-18T10:25:02;2.90;42.20
3504;DHT22;1766;53.490;10.174;2022-12-18T10:27:13;2.80;41.50
3504;DHT22;1766;53.490;10.174;2022-12-18T10:29:17;2.90;41.60
3504;DHT22;1766;53.490;10.174;2022-12-18T10:31:21;2.90;41.50
3504;DHT22;1766;53.490;10.174;2022-12-18T10:33:40;3.00;41.70
3504;DHT22;1766;53.490;10.174;2022-12-18T10:35:43;3.00;41.50
3504;DHT22;1766;53.490;10.174;2022-12-18T10:38:02;3.10;41.70
3504;DHT22;1766;53.490;10.174;2022-12-18T10:40:10;3.20;41.70
3504;DHT22;1766;53.490;10.174;2022-12-18T10:42:17;3.20;41.70
3504;DHT22;1766;53.490;10.174;2022-12-18T10:44:22;3.30;41.60
3504;DHT22;1766;53.490;10.174;2022-12-18T10:46:26;3.30;41.60
3504;DHT22;1766;53.490;10.174;2022-12-18T10:48:29;3.40;41.60
3504;DHT22;1766;53.490;10.174;2022-12-18T10:50:33;3.40;41.70
3504;DHT22;1766;53.490;10.174;2022-12-18T10:52:36;3.50;41.80
3504;DHT22;1766;53.490;10.174;2022-12-18T10:54:39;3.50;41.70
3504;DHT22;1766;53.490;10.174;2022-12-18T10:56:42;3.60;41.70
3504;DHT22;1766;53.490;10.174;2022-12-18T10:58:55;3.60;41.60
3504;DHT22;1766;53.490;10.174;2022-12-18T11:01:14;3.70;41.70
3504;DHT22;1766;53.490;10.174;2022-12-18T11:03:32;3.80;41.70
3504;DHT22;1766;53.490;10.174;2022-12-18T11:05:38;3.80;41.70
3504;DHT22;1766;53.490;10.174;2022-12-18T11:07:48;3.90;41.60
3504;DHT22;1766;53.490;10.174;2022-12-18T11:10:01;4.00;41.70
3504;DHT22;1766;53.490;10.174;2022-12-18T11:12:04;4.00;41.60
3504;DHT22;1766;53.490;10.174;2022-12-18T11:14:24;4.00;42.10
3504;DHT22;1766;53.490;10.174;2022-12-18T11:16:28;4.10;41.70
3504;DHT22;1766;53.490;10.174;2022-12-18T11:18:34;4.10;41.50
3504;DHT22;1766;53.490;10.174;2022-12-18T11:20:36;4.20;41.70
3504;DHT22;1766;53.490;10.174;2022-12-18T11:22:40;4.30;41.70
3504;DHT22;1766;53.490;10.174;2022-12-18T11:24:42;4.40;42.00
3504;DHT22;1766;53.490;10.174;2022-12-18T11:26:45;4.60;42.50
3504;DHT22;1766;53.490;10.174;2022-12-18T11:28:49;5.00;42.50
3504;DHT22;1766;53.490;10.174;2022-12-18T11:31:11;5.30;42.20
3504;DHT22;1766;53.490;10.174;2022-12-18T11:33:21;5.70;41.80
3504;DHT22;1766;53.490;10.174;2022-12-18T11:35:32;6.20;41.40
3504;DHT22;1766;53.490;10.174;2022-12-18T11:37:40;6.40;40.80
3504;DHT22;1766;53.490;10.174;2022-12-18T11:39:48;6.50;40.40
3504;DHT22;1766;53.490;10.174;2022-12-18T11:41:56;6.50;40.20
3504;DHT22;1766;53.490;10.174;2022-12-18T11:44:18;6.40;40.10
3504;DHT22;1766;53.490;10.174;2022-12-18T11:46:27;6.20;40.10
3504;DHT22;1766;53.490;10.174;2022-12-18T11:48:36;6.00;40.10
3504;DHT22;1766;53.490;10.174;2022-12-18T11:50:46;6.00;40.40
3504;DHT22;1766;53.490;10.174;2022-12-18T11:52:51;6.00;40.80
3504;DHT22;1766;53.490;10.174;2022-12-18T11:54:56;6.30;41.50
3504;DHT22;1766;53.490;10.174;2022-12-18T11:57:10;6.70;41.80
3504;DHT22;1766;53.490;10.174;2022-12-18T11:59:24;7.30;41.90
3504;DHT22;1766;53.490;10.174;2022-12-18T12:01:42;8.00;41.50
3504;DHT22;1766;53.490;10.174;2022-12-18T12:04:00;8.60;40.90
3504;DHT22;1766;53.490;10.174;2022-12-18T12:06:15;8.90;40.30
3504;DHT22;1766;53.490;10.174;2022-12-18T12:08:29;9.20;39.80
3504;DHT22;1766;53.490;10.174;2022-12-18T12:10:46;9.30;39.10
3504;DHT22;1766;53.490;10.174;2022-12-18T12:13:05;9.30;38.60
3504;DHT22;1766;53.490;10.174;2022-12-18T12:15:23;9.30;38.30
3504;DHT22;1766;53.490;10.174;2022-12-18T12:17:36;9.10;37.40
3504;DHT22;1766;53.490;10.174;2022-12-18T12:19:48;8.80;36.80
3504;DHT22;1766;53.490;10.174;2022-12-18T12:22:00;8.60;37.70
3504;DHT22;1766;53.490;10.174;2022-12-18T12:24:20;8.40;37.30
3504;DHT22;1766;53.490;10.174;2022-12-18T12:26:32;8.20;37.30
3504;DHT22;1766;53.490;10.174;2022-12-18T12:28:51;8.00;37.10
3504;DHT22;1766;53.490;10.174;2022-12-18T12:31:04;7.70;37.00
3504;DHT22;1766;53.490;10.174;2022-12-18T12:33:18;7.60;37.20
3504;DHT22;1766;53.490;10.174;2022-12-18T12:35:31;7.30;37.30
3504;DHT22;1766;53.490;10.174;2022-12-18T12:37:48;7.20;37.60
3504;DHT22;1766;53.490;10.174;2022-12-18T12:39:55;7.10;37.70
3504;DHT22;1766;53.490;10.174;2022-12-18T12:41:57;7.00;37.40
3504;DHT22;1766;53.490;10.174;2022-12-18T12:44:17;7.00;37.60
3504;DHT22;1766;53.490;10.174;2022-12-18T12:46:22;6.80;37.60
3504;DHT22;1766;53.490;10.174;2022-12-18T12:48:33;6.80;37.60
3504;DHT22;1766;53.490;10.174;2022-12-18T12:50:38;6.80;37.60
3504;DHT22;1766;53.490;10.174;2022-12-18T12:52:45;6.80;37.70
3504;DHT22;1766;53.490;10.174;2022-12-18T12:54:48;6.90;37.70
3504;DHT22;1766;53.490;10.174;2022-12-18T12:56:54;6.90;37.40
3504;DHT22;1766;53.490;10.174;2022-12-18T12:59:04;6.90;37.50
3504;DHT22;1766;53.490;10.174;2022-12-18T13:01:18;7.00;37.50
3504;DHT22;1766;53.490;10.174;2022-12-18T13:03:52;6.90;37.30
3504;DHT22;1766;53.490;10.174;2022-12-18T13:06:00;6.90;37.40
3504;DHT22;1766;53.490;10.174;2022-12-18T13:08:07;6.00;36.50
3504;DHT22;1766;53.490;10.174;2022-12-18T13:12:34;6.80;37.20
3504;DHT22;1766;53.490;10.174;2022-12-18T13:14:50;6.80;36.80
3504;DHT22;1766;53.490;10.174;2022-12-18T13:17:14;6.70;36.80
3504;DHT22;1766;53.490;10.174;2022-12-18T13:19:23;6.70;37.00
3504;DHT22;1766;53.490;10.174;2022-12-18T13:21:27;6.80;37.30
3504;DHT22;1766;53.490;10.174;2022-12-18T13:23:33;6.80;37.20
3504;DHT22;1766;53.490;10.174;2022-12-18T13:25:37;6.90;37.20
3504;DHT22;1766;53.490;10.174;2022-12-18T13:27:59;6.90;37.10
3504;DHT22;1766;53.490;10.174;2022-12-18T13:30:42;6.70;36.60
3504;DHT22;1766;53.490;10.174;2022-12-18T13:32:47;6.80;36.50
3504;DHT22;1766;53.490;10.174;2022-12-18T13:37:44;6.40;36.30
3504;DHT22;1766;53.490;10.174;2022-12-18T13:39:53;6.40;36.20
3504;DHT22;1766;53.490;10.174;2022-12-18T13:42:37;6.30;36.20
3504;DHT22;1766;53.490;10.174;2022-12-18T13:44:53;6.20;36.30
3504;DHT22;1766;53.490;10.174;2022-12-18T13:46:57;6.10;36.10